createdAt,value
2022-12-17T00:02:23.873Z,100425.56
2022-12-17T00:05:11.305Z,100426.25
2022-12-17T00:07:58.601Z,100425.42
2022-12-17T00:10:45.822Z,100424.43
2022-12-17T00:13:41.407Z,100420.53
2022-12-17T00:16:28.615Z,100420.06
2022-12-17T00:19:15.764Z,100431.36
2022-12-17T00:22:02.907Z,100432.42
2022-12-17T00:24:50.157Z,100440.47
2022-12-17T00:27:37.372Z,100445.09
2022-12-17T00:30:25.254Z,100448.54
2022-12-17T00:33:12.279Z,100452.98
2022-12-17T00:35:59.582Z,100450.77
2022-12-17T00:39:03.883Z,100455.39
2022-12-17T00:41:50.820Z,100452.52
2022-12-17T00:44:38.049Z,100457.29
2022-12-17T00:47:25.104Z,100457.79
2022-12-17T00:50:12.333Z,100460.86
2022-12-17T00:52:59.412Z,100460.52
2022-12-17T00:55:46.443Z,100463.46
2022-12-17T00:58:33.500Z,100469.13
2022-12-17T01:01:20.986Z,100470.51
2022-12-17T01:04:08.573Z,100471.55
2022-12-17T01:06:55.500Z,100469.33
2022-12-17T01:09:43.605Z,100470.69
2022-12-17T01:12:41.617Z,100468.64
2022-12-17T01:15:28.910Z,100470.70
2022-12-17T01:18:16.067Z,100472.08
2022-12-17T01:21:03.297Z,100474.17
2022-12-17T01:23:50.509Z,100477.25
2022-12-17T01:26:37.818Z,100476.39
2022-12-17T01:29:24.970Z,100479.31
2022-12-17T01:32:12.208Z,100482.23
2022-12-17T01:34:59.233Z,100487.20
2022-12-17T01:37:46.540Z,100483.98
2022-12-17T01:40:34.543Z,100486.05
2022-12-17T01:43:21.968Z,100491.53
2022-12-17T01:46:09.794Z,100491.86
2022-12-17T01:49:05.898Z,100498.86
2022-12-17T01:51:54.303Z,100501.41
2022-12-17T01:54:41.338Z,100506.89
2022-12-17T01:57:28.394Z,100507.73
2022-12-17T02:00:23.511Z,100507.21
2022-12-17T02:03:10.709Z,100508.23
2022-12-17T02:06:31.091Z,100507.19
2022-12-17T02:09:30.426Z,100516.21
2022-12-17T02:12:45.271Z,100514.30
2022-12-17T02:15:46.827Z,100513.59
2022-12-17T02:18:42.050Z,100511.69
2022-12-17T02:21:30.869Z,100517.29
2022-12-17T02:24:56.642Z,100517.23
2022-12-17T02:27:44.712Z,100518.94
2022-12-17T02:30:32.429Z,100523.04
2022-12-17T02:33:20.909Z,100526.11
2022-12-17T02:36:18.662Z,100527.13
2022-12-17T02:39:05.690Z,100526.59
2022-12-17T02:42:07.503Z,100523.31
2022-12-17T02:44:55.977Z,100523.10
2022-12-17T02:47:44.040Z,100521.88
2022-12-17T02:50:32.137Z,100520.04
2022-12-17T02:53:21.207Z,100525.55
2022-12-17T02:56:08.367Z,100524.38
2022-12-17T02:58:55.321Z,100524.22
2022-12-17T03:01:42.457Z,100528.67
2022-12-17T03:04:29.809Z,100531.08
2022-12-17T03:07:17.163Z,100536.38
2022-12-17T03:10:04.313Z,100534.31
2022-12-17T03:12:51.786Z,100535.85
2022-12-17T03:15:39.191Z,100530.73
2022-12-17T03:18:26.424Z,100528.85
2022-12-17T03:21:14.384Z,100529.87
2022-12-17T03:24:01.588Z,100525.96
2022-12-17T03:26:50.612Z,100526.67
2022-12-17T03:29:37.605Z,100531.14
2022-12-17T03:32:24.880Z,100535.08
2022-12-17T03:35:11.936Z,100545.67
2022-12-17T03:37:59.005Z,100554.40
2022-12-17T03:40:45.928Z,100557.16
2022-12-17T03:43:33.652Z,100553.40
2022-12-17T03:46:21.207Z,100557.51
2022-12-17T03:49:08.391Z,100566.77
2022-12-17T03:51:55.542Z,100569.50
2022-12-17T03:54:42.883Z,100574.14
2022-12-17T03:57:30.323Z,100574.36
2022-12-17T04:00:17.538Z,100590.61
2022-12-17T04:03:04.926Z,100592.35
2022-12-17T04:05:52.070Z,100597.16
2022-12-17T04:08:39.454Z,100598.89
2022-12-17T04:11:26.538Z,100598.86
2022-12-17T04:14:13.755Z,100601.25
2022-12-17T04:17:00.817Z,100605.14
2022-12-17T04:19:48.282Z,100602.41
2022-12-17T04:22:35.379Z,100602.77
2022-12-17T04:25:23.263Z,100611.65
2022-12-17T04:28:10.203Z,100616.47
2022-12-17T04:30:57.817Z,100623.67
2022-12-17T04:33:45.288Z,100629.35
2022-12-17T04:36:32.485Z,100631.78
2022-12-17T04:39:19.740Z,100632.16
2022-12-17T04:42:07.037Z,100629.10
2022-12-17T04:44:54.240Z,100635.42
2022-12-17T04:47:41.281Z,100635.08
2022-12-17T04:50:28.426Z,100637.13
2022-12-17T04:53:24.674Z,100633.02
2022-12-17T04:56:13.630Z,100636.61
2022-12-17T04:59:00.860Z,100642.29
2022-12-17T05:01:48.156Z,100647.63
2022-12-17T05:04:40.088Z,100649.73
2022-12-17T05:07:27.402Z,100650.11
2022-12-17T05:10:14.486Z,100651.29
2022-12-17T05:13:04.744Z,100662.02
2022-12-17T05:15:53.386Z,100666.60
2022-12-17T05:18:41.023Z,100671.52
2022-12-17T05:21:33.192Z,100673.36
2022-12-17T05:24:20.824Z,100670.61
2022-12-17T05:27:07.905Z,100665.98
2022-12-17T05:29:54.861Z,100669.20
2022-12-17T05:32:42.206Z,100671.74
2022-12-17T05:35:29.621Z,100678.57
2022-12-17T05:38:26.560Z,100685.05
2022-12-17T05:41:17.214Z,100688.11
2022-12-17T05:44:04.495Z,100691.52
2022-12-17T05:46:51.525Z,100696.64
2022-12-17T05:49:38.732Z,100701.58
2022-12-17T05:52:25.823Z,100702.77
2022-12-17T05:55:13.052Z,100702.05
2022-12-17T05:58:00.113Z,100701.50
2022-12-17T06:00:47.438Z,100704.23
2022-12-17T06:03:35.412Z,100710.73
2022-12-17T06:06:22.981Z,100714.17
2022-12-17T06:09:10.271Z,100722.40
2022-12-17T06:12:02.544Z,100727.88
2022-12-17T06:14:50.466Z,100724.80
2022-12-17T06:17:37.507Z,100727.75
2022-12-17T06:20:25.394Z,100737.35
2022-12-17T06:23:25.670Z,100739.40
2022-12-17T06:26:14.741Z,100740.06
2022-12-17T06:29:02.240Z,100743.65
2022-12-17T06:31:49.562Z,100743.98
2022-12-17T06:34:36.987Z,100743.66
2022-12-17T06:37:24.210Z,100748.62
2022-12-17T06:40:11.268Z,100754.08
2022-12-17T06:42:58.538Z,100758.17
2022-12-17T06:45:45.962Z,100759.20
2022-12-17T06:48:33.193Z,100765.89
2022-12-17T06:51:20.354Z,100772.02
2022-12-17T06:54:07.590Z,100773.38
2022-12-17T06:56:54.746Z,100773.36
2022-12-17T06:59:41.876Z,100777.11
2022-12-17T07:02:29.892Z,100783.25
2022-12-17T07:05:17.375Z,100790.25
2022-12-17T07:08:04.841Z,100796.24
2022-12-17T07:10:51.953Z,100803.39
2022-12-17T07:13:40.182Z,100808.30
2022-12-17T07:16:27.258Z,100817.67
2022-12-17T07:19:14.546Z,100822.59
2022-12-17T07:22:01.512Z,100826.27
2022-12-17T07:24:48.876Z,100830.98
2022-12-17T07:27:36.143Z,100831.27
2022-12-17T07:30:24.258Z,100835.80
2022-12-17T07:33:25.416Z,100835.75
2022-12-17T07:36:13.456Z,100838.82
2022-12-17T07:39:00.651Z,100842.73
2022-12-17T07:41:47.880Z,100844.08
2022-12-17T07:44:35.254Z,100847.64
2022-12-17T07:47:22.175Z,100853.95
2022-12-17T07:50:09.259Z,100855.83
2022-12-17T07:52:56.269Z,100857.34
2022-12-17T07:55:43.428Z,100863.14
2022-12-17T07:58:30.637Z,100870.27
2022-12-17T08:01:21.266Z,100868.36
2022-12-17T08:04:08.671Z,100872.94
2022-12-17T08:07:01.637Z,100873.61
2022-12-17T08:09:51.836Z,100880.94
2022-12-17T08:12:38.992Z,100879.20
2022-12-17T08:15:26.309Z,100885.16
2022-12-17T08:18:26.055Z,100885.80
2022-12-17T08:21:13.825Z,100889.86
2022-12-17T08:24:00.996Z,100895.84
2022-12-17T08:26:48.559Z,100892.92
2022-12-17T08:29:35.646Z,100899.74
2022-12-17T08:32:22.999Z,100903.67
2022-12-17T08:35:10.184Z,100904.51
2022-12-17T08:37:57.806Z,100907.88
2022-12-17T08:40:45.068Z,100905.02
2022-12-17T08:43:32.609Z,100906.38
2022-12-17T08:46:19.756Z,100914.53
2022-12-17T08:49:06.884Z,100919.41
2022-12-17T08:51:54.518Z,100924.13
2022-12-17T08:54:41.533Z,100927.30
2022-12-17T08:57:32.500Z,100927.02
2022-12-17T09:00:19.874Z,100927.48
2022-12-17T09:03:06.949Z,100934.77
2022-12-17T09:05:54.546Z,100940.36
2022-12-17T09:08:41.664Z,100940.66
2022-12-17T09:11:28.626Z,100940.06
2022-12-17T09:14:15.927Z,100937.42
2022-12-17T09:17:03.128Z,100935.38
2022-12-17T09:19:50.155Z,100933.53
2022-12-17T09:22:37.674Z,100941.95
2022-12-17T09:25:25.710Z,100940.45
2022-12-17T09:28:12.780Z,100944.57
2022-12-17T09:31:00.105Z,100945.60
2022-12-17T09:33:47.307Z,100952.09
2022-12-17T09:36:34.341Z,100949.39
2022-12-17T09:39:21.603Z,100953.35
2022-12-17T09:42:35.308Z,100950.58
2022-12-17T09:45:35.094Z,100951.16
2022-12-17T09:49:06.060Z,100957.10
2022-12-17T09:51:54.366Z,100960.15
2022-12-17T09:55:08.760Z,100964.42
2022-12-17T09:57:56.988Z,100969.92
2022-12-17T10:00:48.216Z,100966.34
2022-12-17T10:03:38.937Z,100965.66
2022-12-17T10:06:47.235Z,100964.30
2022-12-17T10:09:37.776Z,100959.52
2022-12-17T10:12:38.170Z,100962.56
2022-12-17T10:15:31.759Z,100966.31
2022-12-17T10:18:33.250Z,100966.85
2022-12-17T10:21:27.401Z,100973.18
2022-12-17T10:24:29.481Z,100975.41
2022-12-17T10:27:16.727Z,100982.73
2022-12-17T10:30:03.805Z,100981.89
2022-12-17T10:32:51.169Z,100986.02
2022-12-17T10:35:53.834Z,100993.38
2022-12-17T10:38:48.226Z,101001.25
2022-12-17T10:41:50.893Z,101004.81
2022-12-17T10:44:58.408Z,101008.77
2022-12-17T10:47:47.042Z,101010.30
2022-12-17T10:50:41.535Z,101014.81
2022-12-17T10:53:40.327Z,101019.95
2022-12-17T10:56:45.192Z,101019.27
2022-12-17T10:59:49.861Z,101023.34
2022-12-17T11:02:46.598Z,101019.25
2022-12-17T11:05:44.101Z,101027.69
2022-12-17T11:08:35.291Z,101029.27
2022-12-17T11:11:30.601Z,101029.04
2022-12-17T11:14:21.809Z,101032.14
2022-12-17T11:17:13.826Z,101036.28
2022-12-17T11:20:20.813Z,101040.91
2022-12-17T11:23:17.919Z,101043.95
2022-12-17T11:26:29.468Z,101049.21
2022-12-17T11:29:18.486Z,101052.73
2022-12-17T11:32:39.352Z,101058.34
2022-12-17T11:35:44.983Z,101060.08
2022-12-17T11:38:49.724Z,101065.02
2022-12-17T11:41:46.065Z,101070.19
2022-12-17T11:44:59.450Z,101070.30
2022-12-17T11:48:00.118Z,101075.40
2022-12-17T11:51:02.222Z,101077.46
2022-12-17T11:54:04.810Z,101084.02
2022-12-17T11:57:00.343Z,101088.84
2022-12-17T12:00:15.255Z,101093.98
2022-12-17T12:03:30.738Z,101095.92
2022-12-17T12:06:21.780Z,101100.12
2022-12-17T12:10:12.988Z,101096.44
2022-12-17T12:13:11.441Z,101096.44
2022-12-17T12:16:19.560Z,101096.93
2022-12-17T12:19:29.994Z,101095.87
2022-12-17T12:22:25.913Z,101095.39
2022-12-17T12:26:06.495Z,101094.72
2022-12-17T12:29:12.862Z,101103.64
2022-12-17T12:32:06.087Z,101103.12
2022-12-17T12:34:57.686Z,101098.52
2022-12-17T12:37:44.687Z,101108.62
2022-12-17T12:40:59.434Z,101115.14
2022-12-17T12:43:54.528Z,101115.64
2022-12-17T12:47:09.327Z,101113.89
2022-12-17T12:50:27.398Z,101115.94
2022-12-17T12:53:17.976Z,101118.69
2022-12-17T12:56:05.346Z,101124.00
2022-12-17T12:58:53.632Z,101130.17
2022-12-17T13:01:52.105Z,101134.11
2022-12-17T13:04:55.598Z,101138.73
2022-12-17T13:07:31.064Z,101138.90
2022-12-17T13:10:00.194Z,101146.31
2022-12-17T13:12:45.021Z,101145.14
2022-12-17T13:15:35.033Z,101144.83
2022-12-17T13:18:25.297Z,101144.17
2022-12-17T13:21:15.099Z,101144.23
2022-12-17T13:23:44.191Z,101146.49
2022-12-17T13:26:21.361Z,101154.06
2022-12-17T13:29:12.098Z,101156.86
2022-12-17T13:32:02.409Z,101163.77
2022-12-17T13:34:58.713Z,101167.55
2022-12-17T13:37:44.660Z,101170.33
2022-12-17T13:40:26.196Z,101173.42
2022-12-17T13:42:54.764Z,101183.21
2022-12-17T13:45:26.060Z,101189.93
2022-12-17T13:47:57.572Z,101184.66
2022-12-17T13:50:34.896Z,101188.65
2022-12-17T13:53:15.551Z,101191.59
2022-12-17T13:55:52.085Z,101196.75
2022-12-17T13:58:22.573Z,101203.46
2022-12-17T14:00:51.419Z,101200.61
2022-12-17T14:03:37.409Z,101205.77
2022-12-17T14:06:12.101Z,101211.27
2022-12-17T14:08:41.777Z,101209.04
2022-12-17T14:11:30.745Z,101218.11
2022-12-17T14:13:59.452Z,101222.03
2022-12-17T14:16:28.369Z,101225.98
2022-12-17T14:18:59.566Z,101232.48
2022-12-17T14:21:29.077Z,101237.80
2022-12-17T14:23:58.190Z,101243.63
2022-12-17T14:26:26.793Z,101244.66
2022-12-17T14:28:55.753Z,101248.95
2022-12-17T14:31:30.582Z,101250.35
2022-12-17T14:34:08.199Z,101255.52
2022-12-17T14:36:43.246Z,101256.82
2022-12-17T14:39:32.304Z,101255.66
2022-12-17T14:42:29.684Z,101258.80
2022-12-17T14:45:07.867Z,101270.64
2022-12-17T14:47:37.953Z,101279.05
2022-12-17T14:50:25.352Z,101283.02
2022-12-17T14:52:57.799Z,101288.34
2022-12-17T14:55:55.303Z,101288.38
2022-12-17T14:58:26.860Z,101295.09
2022-12-17T15:01:13.318Z,101297.54
2022-12-17T15:03:46.802Z,101299.25
2022-12-17T15:06:20.594Z,101302.16
2022-12-17T15:08:53.340Z,101312.25
2022-12-17T15:11:24.290Z,101317.38
2022-12-17T15:13:56.374Z,101317.73
2022-12-17T15:16:25.572Z,101321.31
2022-12-17T15:18:54.303Z,101322.52
2022-12-17T15:21:25.029Z,101326.64
2022-12-17T15:23:54.804Z,101331.10
2022-12-17T15:26:23.746Z,101339.66
2022-12-17T15:28:52.978Z,101345.30
2022-12-17T15:31:24.984Z,101344.95
2022-12-17T15:33:54.681Z,101349.23
2022-12-17T15:36:24.372Z,101353.17
2022-12-17T15:38:53.139Z,101358.12
2022-12-17T15:41:40.540Z,101359.65
2022-12-17T15:44:09.373Z,101360.69
2022-12-17T15:46:38.001Z,101364.95
2022-12-17T15:49:06.706Z,101365.97
2022-12-17T15:51:35.417Z,101363.05
2022-12-17T15:54:04.161Z,101360.65
2022-12-17T15:56:32.735Z,101357.23
2022-12-17T15:59:01.546Z,101357.06
2022-12-17T16:01:30.227Z,101360.84
2022-12-17T16:03:58.937Z,101364.94
2022-12-17T16:06:27.829Z,101369.90
2022-12-17T16:08:56.446Z,101374.01
2022-12-17T16:11:24.948Z,101382.55
2022-12-17T16:13:55.330Z,101384.77
2022-12-17T16:16:24.739Z,101384.27
2022-12-17T16:18:54.135Z,101391.27
2022-12-17T16:21:22.706Z,101394.86
2022-12-17T16:23:51.275Z,101399.83
2022-12-17T16:26:20.042Z,101407.52
2022-12-17T16:28:49.290Z,101412.31
2022-12-17T16:31:17.934Z,101415.41
2022-12-17T16:33:48.317Z,101415.23
2022-12-17T16:36:20.949Z,101419.00
2022-12-17T16:38:52.875Z,101420.89
2022-12-17T16:41:23.303Z,101424.65
2022-12-17T16:43:51.924Z,101433.20
2022-12-17T16:46:35.848Z,101436.11
2022-12-17T16:49:11.153Z,101438.85
2022-12-17T16:51:40.591Z,101439.53
2022-12-17T16:54:17.063Z,101443.47
2022-12-17T16:56:46.852Z,101444.84
2022-12-17T16:59:17.180Z,101441.59
2022-12-17T17:01:50.061Z,101442.61
2022-12-17T17:04:22.420Z,101446.39
2022-12-17T17:06:57.057Z,101443.31
2022-12-17T17:09:25.972Z,101443.86
2022-12-17T17:11:59.170Z,101449.67
2022-12-17T17:14:27.938Z,101451.38
2022-12-17T17:16:56.614Z,101458.21
2022-12-17T17:19:25.244Z,101461.29
2022-12-17T17:21:54.741Z,101465.73
2022-12-17T17:24:25.947Z,101464.36
2022-12-17T17:26:55.693Z,101463.34
2022-12-17T17:29:24.522Z,101468.81
2022-12-17T17:34:41.834Z,101471.71
2022-12-17T17:37:10.623Z,101477.00
2022-12-17T17:39:39.371Z,101482.13
2022-12-17T17:42:08.135Z,101483.67
2022-12-17T17:44:37.320Z,101484.00
2022-12-17T17:47:06.090Z,101490.16
2022-12-17T17:49:34.728Z,101491.52
2022-12-17T17:52:11.632Z,101494.93
2022-12-17T17:54:41.011Z,101496.96
2022-12-17T17:57:10.111Z,101498.50
2022-12-17T17:59:39.739Z,101504.31
2022-12-17T18:02:11.290Z,101505.51
2022-12-17T18:04:40.263Z,101506.53
2022-12-17T18:07:26.099Z,101506.02
2022-12-17T18:09:56.339Z,101509.27
2022-12-17T18:12:43.348Z,101511.65
2022-12-17T18:15:16.944Z,101514.05
2022-12-17T18:17:51.725Z,101515.24
2022-12-17T18:20:20.343Z,101517.13
2022-12-17T18:22:50.553Z,101521.05
2022-12-17T18:25:19.182Z,101524.98
2022-12-17T18:27:47.874Z,101527.55
2022-12-17T18:30:16.537Z,101531.48
2022-12-17T18:32:48.694Z,101534.05
2022-12-17T18:35:17.361Z,101536.95
2022-12-17T18:37:45.867Z,101537.13
2022-12-17T18:40:14.519Z,101543.10
2022-12-17T18:43:01.717Z,101547.05
2022-12-17T18:45:30.263Z,101552.02
2022-12-17T18:47:58.890Z,101560.04
2022-12-17T18:50:27.391Z,101566.36
2022-12-17T18:52:55.989Z,101569.95
2022-12-17T18:55:24.566Z,101572.16
2022-12-17T18:57:53.179Z,101573.70
2022-12-17T19:00:21.843Z,101580.19
2022-12-17T19:02:50.565Z,101578.98
2022-12-17T19:05:19.273Z,101580.85
2022-12-17T19:07:47.986Z,101584.95
2022-12-17T19:10:16.562Z,101590.09
2022-12-17T19:12:45.253Z,101593.67
2022-12-17T19:15:13.991Z,101595.89
2022-12-17T19:17:42.504Z,101598.11
2022-12-17T19:20:11.559Z,101603.05
2022-12-17T19:22:40.106Z,101609.20
2022-12-17T19:25:09.315Z,101615.33
2022-12-17T19:27:37.923Z,101620.96
2022-12-17T19:30:07.643Z,101623.00
2022-12-17T19:32:36.329Z,101623.69
2022-12-17T19:35:05.374Z,101627.78
2022-12-17T19:37:33.977Z,101632.56
2022-12-17T19:40:02.637Z,101627.94
2022-12-17T19:42:37.015Z,101631.34
2022-12-17T19:45:07.148Z,101632.70
2022-12-17T19:47:35.781Z,101636.12
2022-12-17T19:50:05.581Z,101638.15
2022-12-17T19:52:34.360Z,101633.86
2022-12-17T19:55:03.114Z,101635.73
2022-12-17T19:57:34.506Z,101639.85
2022-12-17T20:00:04.056Z,101646.16
2022-12-17T20:02:33.138Z,101651.95
2022-12-17T20:05:02.078Z,101658.60
2022-12-17T20:07:30.648Z,101658.60
2022-12-17T20:09:59.323Z,101657.21
2022-12-17T20:12:27.925Z,101661.13
2022-12-17T20:14:56.539Z,101665.22
2022-12-17T20:17:26.166Z,101667.44
2022-12-17T20:19:56.503Z,101671.35
2022-12-17T20:22:26.634Z,101674.61
2022-12-17T20:24:55.188Z,101678.02
2022-12-17T20:27:23.718Z,101684.16
2022-12-17T20:29:53.058Z,101686.21
2022-12-17T20:32:21.702Z,101688.42
2022-12-17T20:34:50.236Z,101691.17
2022-12-17T20:37:18.842Z,101693.23
2022-12-17T20:39:47.410Z,101693.05
2022-12-17T20:42:17.956Z,101694.59
2022-12-17T20:44:51.687Z,101697.15
2022-12-17T20:47:21.973Z,101698.69
2022-12-17T20:49:50.544Z,101708.42
2022-12-17T20:52:19.350Z,101715.91
2022-12-17T20:54:49.346Z,101717.45
2022-12-17T20:57:18.093Z,101716.26
2022-12-17T20:59:46.804Z,101716.42
2022-12-17T21:02:16.801Z,101718.14
2022-12-17T21:04:48.553Z,101718.98
2022-12-17T21:07:17.232Z,101728.55
2022-12-17T21:09:45.741Z,101733.84
2022-12-17T21:12:14.318Z,101737.42
2022-12-17T21:14:42.832Z,101738.94
2022-12-17T21:17:15.114Z,101737.56
2022-12-17T21:19:43.720Z,101741.65
2022-12-17T21:22:13.537Z,101739.60
2022-12-17T21:24:42.168Z,101743.52
2022-12-17T21:27:14.714Z,101746.23
2022-12-17T21:29:43.733Z,101758.00
2022-12-17T21:32:12.356Z,101757.48
2022-12-17T21:34:41.201Z,101762.08
2022-12-17T21:37:11.287Z,101763.10
2022-12-17T21:39:40.327Z,101761.06
2022-12-17T21:42:27.291Z,101764.98
2022-12-17T21:44:55.904Z,101772.34
2022-12-17T21:47:24.923Z,101775.42
2022-12-17T21:49:53.559Z,101776.45
2022-12-17T21:52:22.192Z,101777.82
2022-12-17T21:54:50.812Z,101775.77
2022-12-17T21:57:19.377Z,101779.00
2022-12-17T21:59:48.095Z,101777.65
2022-12-17T22:02:17.577Z,101780.39
2022-12-17T22:04:46.931Z,101780.92
2022-12-17T22:07:27.628Z,101781.09
2022-12-17T22:10:46.995Z,101782.46
2022-12-17T22:13:08.721Z,101781.98
2022-12-17T22:15:43.439Z,101785.91
2022-12-17T22:18:17.294Z,101785.24
2022-12-17T22:20:46.004Z,101785.93
2022-12-17T22:23:17.280Z,101786.45
2022-12-17T22:25:46.270Z,101794.34
2022-12-17T22:28:14.897Z,101795.55
2022-12-17T22:31:02.050Z,101794.70
2022-12-17T22:33:53.623Z,101796.23
2022-12-17T22:37:38.724Z,101795.21
2022-12-17T22:43:36.847Z,101798.13
2022-12-17T22:44:38.094Z,101799.35
2022-12-17T22:45:11.004Z,101798.17
2022-12-17T22:47:40.456Z,101801.95
2022-12-17T22:50:09.743Z,101800.77
2022-12-17T22:52:38.981Z,101805.08
2022-12-17T22:55:08.467Z,101808.52
2022-12-17T22:57:38.441Z,101816.56
2022-12-17T23:00:20.533Z,101816.40
2022-12-17T23:02:56.018Z,101822.23
2022-12-17T23:05:26.625Z,101824.30
2022-12-17T23:07:56.537Z,101819.36
2022-12-17T23:10:27.224Z,101816.64
2022-12-17T23:12:55.925Z,101812.38
2022-12-17T23:15:28.235Z,101814.45
2022-12-17T23:18:00.852Z,101812.58
2022-12-17T23:20:32.499Z,101817.54
2022-12-17T23:23:01.631Z,101818.91
2022-12-17T23:25:31.253Z,101825.92
2022-12-17T23:27:59.936Z,101826.61
2022-12-17T23:30:28.512Z,101825.25
2022-12-17T23:32:57.062Z,101823.55
2022-12-17T23:35:25.675Z,101823.89
2022-12-17T23:37:54.808Z,101832.42
2022-12-17T23:40:23.758Z,101836.88
2022-12-17T23:42:52.308Z,101837.73
2022-12-17T23:45:20.849Z,101836.20
2022-12-17T23:47:49.408Z,101835.16
2022-12-17T23:50:17.969Z,101845.59
2022-12-17T23:52:46.552Z,101845.58
2022-12-17T23:55:15.189Z,101850.02
2022-12-17T23:57:43.842Z,101843.52
